Schertz, Texas
Current Conditions -  °F | °C
As of 12:58 PM on Monday 22 Dec 2014 (Local Time) from KRND Reporting Station
Clear Clear  
Wind Chill: 67°   Ceiling: Unl
Heat Index: 67°   Visibility: 10mi
Dew Point: 53°   Wind: 10mph
Humidity: 62%   Direction: 210°SSW
Pressure: 29.69"   Gusts: NA
Location:  29.57°N, 98.27°W
Report Text: KRND 221858Z AUTO 21009KT 10SM CLR 19/12 A2969 RMK AO2 SLP051 T01930119
Loading
Personal Weather Stations






























Interactive Weather Map New forecast layout! Learn more

10-Day Weather Forecast

Advertisements
Track Severe Weather on mobile